Time;durP1;ratioP1;P1;durP2;ratioP2;P2;SDS_P1;SDS_P2;PMS_P1;PMS_P2;Temp;Humidity;BMP_temperature;BMP_pressure;BME280_temperature;BME280_humidity;BME280_pressure;Samples;Min_cycle;Max_cycle;Signal;HPM_P1;HPM_P2
2021/08/06 00:01:27;;;;;;;23.75;14.82;;;;;;;16.41;76.06;99602.41;5010736;28;20045;-78
2021/08/06 00:03:55;;;;;;;23.67;13.45;;;;;;;16.34;75.68;99603.53;5028115;28;20041;-78
2021/08/06 00:06:22;;;;;;;22.52;14.18;;;;;;;16.35;75.88;99621.00;5028026;28;20473;-76
2021/08/06 00:08:48;;;;;;;24.23;15.10;;;;;;;16.31;76.21;99620.25;5028974;28;20037;-78
2021/08/06 00:11:14;;;;;;;29.50;14.88;;;;;;;16.33;75.95;99643.81;5029345;28;20102;-77
2021/08/06 00:13:40;;;;;;;24.15;14.93;;;;;;;16.27;75.96;99634.41;5033141;28;20045;-79
2021/08/06 00:16:06;;;;;;;26.27;15.85;;;;;;;16.22;75.82;99626.66;5031178;28;20041;-79
2021/08/06 00:18:31;;;;;;;26.50;15.10;;;;;;;16.11;75.94;99607.81;5033182;28;20049;-77
2021/08/06 00:20:57;;;;;;;29.77;16.20;;;;;;;16.04;75.60;99614.19;5032737;28;20072;-79
2021/08/06 00:23:23;;;;;;;28.13;14.98;;;;;;;15.77;75.91;99577.47;5032886;28;20041;-78
2021/08/06 00:25:49;;;;;;;28.27;15.07;;;;;;;15.99;76.42;99613.50;5032386;28;20577;-76
2021/08/06 00:28:14;;;;;;;25.85;14.40;;;;;;;15.98;76.45;99610.00;5031356;28;20448;-76
2021/08/06 00:30:40;;;;;;;24.52;14.60;;;;;;;15.91;76.21;99596.25;5015210;28;20358;-77
2021/08/06 00:33:06;;;;;;;24.92;14.30;;;;;;;15.92;76.15;99597.97;5031198;28;20048;-78
2021/08/06 00:35:38;;;;;;;;;;;;;;;15.89;76.19;99584.94;5016153;28;20047;-77
2021/08/06 00:38:04;;;;;;;21.45;14.40;;;;;;;15.70;76.22;99568.94;5032370;28;19916;-76
2021/08/06 00:40:29;;;;;;;27.27;14.40;;;;;;;15.77;76.45;99577.47;5032605;28;20452;-77
2021/08/06 00:42:58;;;;;;;26.30;15.43;;;;;;;15.78;76.43;99574.78;5016002;28;20504;-76
2021/08/06 00:45:29;;;;;;;20.38;14.13;;;;;;;15.64;76.55;99556.03;5032674;28;20466;-75
2021/08/06 00:47:59;;;;;;;24.25;13.57;;;;;;;15.72;77.00;99568.91;5031964;28;20045;-76
2021/08/06 00:50:26;;;;;;;20.67;12.80;;;;;;;15.81;76.84;99576.44;5031314;28;20136;-77
2021/08/06 00:52:51;;;;;;;21.48;11.45;;;;;;;15.85;77.06;99590.31;5031704;28;20420;-76
2021/08/06 00:55:19;;;;;;;22.30;12.65;;;;;;;15.85;76.98;99588.53;5015106;28;20053;-77
2021/08/06 00:57:53;;;;;;;17.25;10.38;;;;;;;15.82;76.76;99583.41;5015558;28;20050;-76
2021/08/06 01:00:21;;;;;;;18.70;9.88;;;;;;;15.74;77.04;99574.94;5031883;28;20074;-78
2021/08/06 01:03:06;;;;;;;19.20;10.00;;;;;;;15.74;77.02;99586.28;5031198;28;20072;-77
2021/08/06 01:05:37;;;;;;;15.15;9.27;;;;;;;15.62;77.32;99579.69;5032375;28;20037;-78
2021/08/06 01:08:10;;;;;;;16.00;9.38;;;;;;;15.66;77.06;99594.41;5030853;28;20052;-77
2021/08/06 01:10:48;;;;;;;14.52;9.23;;;;;;;15.64;76.92;99587.53;5030838;28;20084;-76
2021/08/06 01:13:42;;;;;;;12.40;8.82;;;;;;;15.61;77.08;99577.13;5030177;28;20079;-76
2021/08/06 01:16:12;;;;;;;20.48;12.15;;;;;;;15.58;77.40;99578.06;5034534;28;20045;-76
2021/08/06 01:19:14;;;;;;;22.95;11.70;;;;;;;15.56;77.42;99564.16;5038829;28;20053;-79
2021/08/06 01:21:49;;;;;;;24.23;10.75;;;;;;;15.57;77.32;99578.13;5013697;28;20045;-76
2021/08/06 01:24:23;;;;;;;20.40;12.30;;;;;;;15.56;77.46;99577.25;5013347;28;20131;-76
2021/08/06 01:26:50;;;;;;;16.83;11.13;;;;;;;15.48;77.59;99558.31;5030547;28;20065;-77
2021/08/06 01:29:18;;;;;;;18.70;12.00;;;;;;;15.58;77.51;99566.72;5029458;28;20053;-75
2021/08/06 01:31:49;;;;;;;19.75;11.48;;;;;;;15.62;77.41;99560.50;5030534;28;20038;-76
2021/08/06 01:34:24;;;;;;;17.60;10.85;;;;;;;15.65;77.58;99561.22;5031284;28;20497;-76
2021/08/06 01:36:50;;;;;;;14.57;10.05;;;;;;;15.67;77.69;99566.41;5030973;28;20041;-76
2021/08/06 01:39:32;;;;;;;18.25;11.55;;;;;;;15.70;77.52;99554.97;5030763;28;20037;-76
2021/08/06 01:42:21;;;;;;;18.55;10.50;;;;;;;15.80;77.58;99556.34;5014302;28;20143;-76
2021/08/06 01:44:55;;;;;;;16.25;10.05;;;;;;;15.85;77.67;99559.69;5030442;28;20118;-75
2021/08/06 01:47:41;;;;;;;14.80;10.77;;;;;;;15.75;77.50;99546.03;5016683;28;20399;-77
2021/08/06 01:50:34;;;;;;;17.85;10.05;;;;;;;15.82;77.78;99560.66;5038077;28;20070;-78
2021/08/06 01:53:08;;;;;;;13.68;9.40;;;;;;;15.93;77.70;99560.31;5041619;28;20049;-79
2021/08/06 01:56:02;;;;;;;16.85;10.50;;;;;;;16.00;77.49;99568.84;5031497;28;20038;-76
2021/08/06 01:58:43;;;;;;;12.75;9.45;;;;;;;16.02;77.54;99564.38;5013571;28;20516;-75
2021/08/06 02:01:13;;;;;;;16.85;10.00;;;;;;;16.00;77.32;99560.13;4996957;28;20037;-76
2021/08/06 02:03:43;;;;;;;18.33;9.77;;;;;;;16.07;77.44;99566.84;5030305;28;20467;-77
2021/08/06 02:06:26;;;;;;;13.75;10.05;;;;;;;16.10;77.22;99572.00;5031339;28;20566;-78
2021/08/06 02:08:57;;;;;;;19.10;11.75;;;;;;;16.08;77.03;99563.31;5014092;28;20615;-75
2021/08/06 02:11:28;;;;;;;14.65;10.57;;;;;;;15.99;77.51;99550.53;5030188;28;20144;-76
2021/08/06 02:13:54;;;;;;;16.60;10.23;;;;;;;16.00;77.29;99557.50;5030690;28;20041;-76
2021/08/06 02:16:25;;;;;;;10.75;9.00;;;;;;;15.88;77.20;99522.06;5029266;28;20045;-76
2021/08/06 02:18:56;;;;;;;17.98;10.32;;;;;;;16.05;77.29;99537.16;5029837;28;20053;-76
2021/08/06 02:21:32;;;;;;;16.95;9.55;;;;;;;16.09;77.47;99536.16;5030472;28;20053;-76
2021/08/06 02:24:11;;;;;;;16.65;9.45;;;;;;;16.07;77.35;99520.47;5013528;28;20045;-74
2021/08/06 02:26:41;;;;;;;16.10;9.82;;;;;;;16.27;77.49;99545.97;5029789;28;20746;-78
2021/08/06 02:29:11;;;;;;;14.50;9.18;;;;;;;16.33;77.21;99539.66;4995057;28;20046;-78
2021/08/06 02:31:42;;;;;;;15.85;10.82;;;;;;;16.09;76.90;99520.41;4993213;28;20069;-76
2021/08/06 02:34:12;;;;;;;16.58;9.90;;;;;;;16.15;77.42;99524.56;5009023;28;20520;-77
2021/08/06 02:36:37;;;;;;;20.65;10.50;;;;;;;16.08;77.82;99492.44;5011026;28;20049;-78
2021/08/06 02:39:13;;;;;;;14.95;11.27;;;;;;;16.26;77.12;99523.25;5012450;28;20041;-77
2021/08/06 02:41:40;;;;;;;15.68;9.82;;;;;;;16.20;77.48;99509.53;5012747;28;20046;-78
2021/08/06 02:44:10;;;;;;;21.60;10.57;;;;;;;16.33;77.40;99520.44;5026028;28;20045;-77
2021/08/06 02:46:36;;;;;;;16.02;10.68;;;;;;;16.47;77.20;99523.38;5026424;28;20407;-76
2021/08/06 02:49:02;;;;;;;17.67;11.45;;;;;;;16.53;77.18;99525.78;5009930;28;20124;-77
2021/08/06 02:51:29;;;;;;;19.60;11.25;;;;;;;16.62;77.13;99524.56;5021019;28;20037;-77
2021/08/06 02:53:54;;;;;;;19.63;11.45;;;;;;;16.66;77.16;99525.34;5029700;28;20046;-75
2021/08/06 02:56:20;;;;;;;20.73;12.65;;;;;;;16.67;77.01;99516.50;5029632;28;20604;-78
2021/08/06 02:58:46;;;;;;;21.25;11.75;;;;;;;16.70;76.92;99512.00;5029579;28;20107;-76
2021/08/06 03:01:14;;;;;;;18.92;11.55;;;;;;;16.73;76.94;99512.81;5032204;28;20072;-75
2021/08/06 03:03:40;;;;;;;21.08;11.88;;;;;;;16.62;76.79;99479.91;5018615;28;20416;-76
2021/08/06 03:06:06;;;;;;;21.73;13.52;;;;;;;16.58;76.56;99483.56;5029497;28;20041;-76
2021/08/06 03:08:32;;;;;;;15.63;10.63;;;;;;;16.79;76.72;99523.06;5030006;28;20049;-77
2021/08/06 03:10:58;;;;;;;17.80;10.20;;;;;;;16.87;76.67;99513.13;5012473;28;20140;-78
2021/08/06 03:13:27;;;;;;;21.60;10.50;;;;;;;17.04;76.77;99524.75;5028320;28;20045;-78
2021/08/06 03:15:53;;;;;;;19.75;9.90;;;;;;;17.14;76.73;99529.56;5029859;28;20513;-77
2021/08/06 03:18:19;;;;;;;20.40;11.55;;;;;;;17.14;76.45;99516.44;5011782;28;20045;-79
2021/08/06 03:20:45;;;;;;;16.00;10.70;;;;;;;17.22;76.37;99520.53;5028337;28;20133;-78
2021/08/06 03:23:11;;;;;;;15.65;11.43;;;;;;;17.30;76.06;99523.72;5029636;28;20033;-79
2021/08/06 03:25:37;;;;;;;17.15;10.65;;;;;;;17.31;76.21;99523.63;5028576;28;20508;-78
2021/08/06 03:28:03;;;;;;;12.88;10.35;;;;;;;17.44;75.94;99529.25;5012035;28;20095;-80
2021/08/06 03:30:30;;;;;;;16.23;9.52;;;;;;;17.53;75.76;99541.16;5012327;28;20136;-79
2021/08/06 03:32:57;;;;;;;13.52;9.63;;;;;;;17.59;75.90;99534.78;5028636;28;20052;-79
2021/08/06 03:35:25;;;;;;;18.02;9.55;;;;;;;17.50;75.50;99507.09;5028232;28;20117;-79
2021/08/06 03:37:52;;;;;;;12.95;9.43;;;;;;;17.70;75.36;99522.03;5012475;28;20055;-76
2021/08/06 03:40:18;;;;;;;16.25;9.70;;;;;;;17.82;75.28;99535.56;5012699;28;20047;-77
2021/08/06 03:42:44;;;;;;;12.05;9.82;;;;;;;17.90;74.95;99526.41;5028682;28;20528;-77
2021/08/06 03:45:11;;;;;;;15.98;10.00;;;;;;;17.85;74.90;99511.75;5028678;28;20045;-77
2021/08/06 03:47:37;;;;;;;14.82;10.00;;;;;;;18.00;74.58;99521.63;5028412;28;20508;-78
2021/08/06 03:50:04;;;;;;;13.07;9.98;;;;;;;17.94;74.39;99510.50;5012870;28;20544;-76
2021/08/06 03:52:30;;;;;;;14.60;10.30;;;;;;;18.00;74.23;99513.75;5028023;28;20053;-78
2021/08/06 03:54:57;;;;;;;12.85;9.98;;;;;;;18.09;74.16;99519.53;5028553;28;20069;-79
2021/08/06 03:57:24;;;;;;;17.75;10.73;;;;;;;18.08;73.88;99509.91;5044633;28;20103;-76
2021/08/06 03:59:51;;;;;;;17.75;10.52;;;;;;;18.15;73.83;99516.63;4995740;28;20064;-76
2021/08/06 04:02:16;;;;;;;15.63;10.43;;;;;;;18.23;73.82;99521.56;5011148;28;20037;-79
2021/08/06 04:04:42;;;;;;;16.08;10.80;;;;;;;18.24;73.52;99508.31;5012256;28;20048;-78
2021/08/06 04:07:08;;;;;;;17.05;10.20;;;;;;;18.06;73.54;99476.63;5027768;28;20040;-77
2021/08/06 04:09:34;;;;;;;14.88;9.93;;;;;;;18.36;73.57;99507.75;5012486;28;20520;-77
2021/08/06 04:12:00;;;;;;;14.13;9.90;;;;;;;18.39;73.14;99521.72;5027786;28;20076;-79
2021/08/06 04:14:26;;;;;;;18.88;10.40;;;;;;;18.23;72.37;99511.03;5011453;28;20140;-79
2021/08/06 04:16:52;;;;;;;12.73;9.10;;;;;;;18.20;73.12;99504.13;5011613;28;20041;-78
2021/08/06 04:19:18;;;;;;;12.85;9.10;;;;;;;18.43;73.07;99518.88;5028842;28;20074;-78
2021/08/06 04:21:43;;;;;;;11.23;9.52;;;;;;;18.52;73.17;99507.91;5028132;28;20128;-75
2021/08/06 04:24:09;;;;;;;13.73;9.82;;;;;;;18.58;72.64;99509.41;5010730;28;20424;-76
2021/08/06 04:26:35;;;;;;;12.40;9.32;;;;;;;18.57;72.13;99506.81;5027912;28;20040;-76
2021/08/06 04:29:01;;;;;;;18.02;9.90;;;;;;;18.43;72.45;99491.66;5028550;28;20072;-77
2021/08/06 04:31:28;;;;;;;13.73;10.18;;;;;;;18.58;72.45;99505.91;5028159;28;20045;-80
2021/08/06 04:33:55;;;;;;;14.88;9.73;;;;;;;18.45;72.07;99519.66;5028570;28;20577;-78
2021/08/06 04:36:21;;;;;;;11.95;9.35;;;;;;;18.42;72.42;99511.88;5027858;28;20148;-77
2021/08/06 04:38:46;;;;;;;13.77;8.95;;;;;;;18.34;72.73;99511.38;5012750;28;20045;-78
2021/08/06 04:41:12;;;;;;;9.73;8.25;;;;;;;18.49;72.53;99512.44;4994935;28;20128;-77
2021/08/06 04:43:39;;;;;;;14.70;9.25;;;;;;;18.60;72.27;99523.34;5028860;28;20048;-78
2021/08/06 04:46:04;;;;;;;12.25;9.07;;;;;;;18.52;72.22;99517.56;5029180;28;20038;-77
2021/08/06 04:48:30;;;;;;;12.82;8.52;;;;;;;18.64;72.25;99516.16;5017413;28;20045;-77
2021/08/06 04:50:56;;;;;;;13.63;8.75;;;;;;;18.76;72.02;99533.16;5029240;28;20069;-77
2021/08/06 04:53:21;;;;;;;14.82;8.48;;;;;;;18.81;71.86;99539.09;5028456;28;20041;-77
2021/08/06 04:55:47;;;;;;;13.90;8.55;;;;;;;18.90;71.28;99541.28;5026897;28;20103;-77
2021/08/06 04:58:13;;;;;;;12.82;8.40;;;;;;;18.80;71.31;99516.28;5029344;28;20693;-77
2021/08/06 05:00:39;;;;;;;11.43;8.65;;;;;;;18.99;71.45;99541.81;5014997;28;20069;-78
2021/08/06 05:03:10;;;;;;;10.45;8.57;;;;;;;18.78;71.09;99499.69;5016920;28;20049;-77
2021/08/06 05:05:44;;;;;;;11.70;8.77;;;;;;;19.03;71.06;99552.13;5004526;28;20095;-77
2021/08/06 05:08:10;;;;;;;11.50;9.23;;;;;;;18.92;70.89;99530.66;5031659;28;20045;-77
2021/08/06 05:10:36;;;;;;;14.07;9.55;;;;;;;18.98;70.81;99542.72;5030727;28;20307;-77
2021/08/06 05:13:02;;;;;;;13.68;9.60;;;;;;;19.03;70.79;99548.63;5014582;28;20091;-77
2021/08/06 05:15:29;;;;;;;17.15;10.82;;;;;;;18.99;70.95;99541.81;5030560;28;20428;-77
2021/08/06 05:17:58;;;;;;;15.77;9.95;;;;;;;18.94;70.83;99540.19;5031237;28;20129;-77
2021/08/06 05:20:24;;;;;;;12.40;9.18;;;;;;;18.92;70.52;99534.16;5030509;28;20093;-77
2021/08/06 05:22:52;;;;;;;12.88;9.93;;;;;;;18.94;70.51;99544.63;5014104;28;20041;-77
2021/08/06 05:25:19;;;;;;;15.82;9.73;;;;;;;18.87;70.66;99549.31;5030633;28;20065;-76
2021/08/06 05:27:45;;;;;;;14.45;9.70;;;;;;;18.78;71.10;99531.31;5030285;28;20087;-75
2021/08/06 05:30:11;;;;;;;13.90;9.38;;;;;;;18.82;70.71;99531.09;5030944;28;20045;-77
2021/08/06 05:32:41;;;;;;;14.98;10.32;;;;;;;18.80;70.48;99548.75;5031555;28;20085;-78
2021/08/06 05:35:08;;;;;;;13.02;9.63;;;;;;;18.76;71.07;99541.06;5030976;28;20033;-77
2021/08/06 05:37:35;;;;;;;19.80;11.23;;;;;;;18.87;71.27;99549.31;5014062;28;20045;-76
2021/08/06 05:40:03;;;;;;;17.83;12.27;;;;;;;18.96;71.32;99548.94;5031231;28;20045;-79
2021/08/06 05:42:30;;;;;;;18.77;12.18;;;;;;;18.93;71.34;99545.56;5031019;28;20098;-77
2021/08/06 05:44:56;;;;;;;21.75;12.23;;;;;;;19.03;71.33;99548.63;5031672;28;20041;-77
2021/08/06 05:47:24;;;;;;;18.50;12.25;;;;;;;19.09;71.16;99535.13;5031059;28;20041;-75
2021/08/06 05:49:49;;;;;;;17.42;11.93;;;;;;;19.24;71.23;99552.88;5014244;28;20615;-76
2021/08/06 05:52:15;;;;;;;18.33;12.48;;;;;;;19.11;70.55;99543.84;5013559;28;20045;-77
2021/08/06 05:54:44;;;;;;;14.07;11.15;;;;;;;19.13;71.11;99535.88;5030902;28;20107;-76
2021/08/06 05:57:10;;;;;;;19.00;10.82;;;;;;;19.28;71.25;99537.75;5017742;28;20041;-78
2021/08/06 05:59:36;;;;;;;14.80;10.82;;;;;;;19.42;71.10;99530.00;5043809;28;20060;-80
2021/08/06 06:02:02;;;;;;;20.00;11.50;;;;;;;19.70;70.62;99546.25;5042600;28;20153;-78
2021/08/06 06:04:47;;;;;;;20.55;12.25;;;;;;;19.93;70.67;99544.22;5031819;28;20068;-75
2021/08/06 06:07:17;;;;;;;20.23;11.63;;;;;;;20.08;70.01;99537.31;5030798;28;20512;-77
2021/08/06 06:09:43;;;;;;;17.30;11.35;;;;;;;20.18;69.91;99527.94;5030004;28;20047;-77
2021/08/06 06:12:09;;;;;;;16.67;11.18;;;;;;;20.56;69.67;99540.03;5031321;28;20423;-76
2021/08/06 06:14:35;;;;;;;16.30;10.27;;;;;;;20.96;69.30;99519.34;5033762;28;20041;-77
2021/08/06 06:17:01;;;;;;;14.80;9.70;;;;;;;21.44;67.43;99523.69;5033762;28;20069;-76
2021/08/06 06:19:27;;;;;;;13.13;9.05;;;;;;;21.64;67.37;99528.69;5031245;28;20124;-77
2021/08/06 06:21:53;;;;;;;12.73;9.18;;;;;;;21.59;66.77;99514.84;5013678;28;20091;-78
2021/08/06 06:24:19;;;;;;;14.93;9.85;;;;;;;21.53;66.03;99512.53;5030055;28;20079;-76
2021/08/06 06:26:47;;;;;;;17.55;10.70;;;;;;;21.45;65.74;99513.00;5030697;28;20077;-75
2021/08/06 06:29:13;;;;;;;15.85;10.80;;;;;;;21.42;65.94;99502.59;5029821;28;20046;-77
2021/08/06 06:31:39;;;;;;;18.80;12.35;;;;;;;21.52;64.97;99503.75;5032336;28;20052;-76
2021/08/06 06:34:06;;;;;;;16.75;11.77;;;;;;;21.72;64.90;99500.91;5032450;28;20136;-75
2021/08/06 06:36:33;;;;;;;18.10;13.20;;;;;;;21.90;64.70;99514.81;5031951;28;20045;-78
2021/08/06 06:39:00;;;;;;;19.95;11.63;;;;;;;21.88;64.75;99509.63;5030398;28;20128;-78
2021/08/06 06:41:26;;;;;;;14.55;10.35;;;;;;;22.04;63.73;99520.16;5015846;28;20095;-80
2021/08/06 06:44:03;;;;;;;15.38;9.65;;;;;;;22.04;63.88;99517.50;5035121;28;20087;-76
2021/08/06 06:46:29;;;;;;;14.40;9.98;;;;;;;21.96;62.88;99512.66;5037154;28;20057;-76
2021/08/06 06:48:55;;;;;;;14.90;9.15;;;;;;;21.99;63.21;99519.56;5019381;28;20052;-78
2021/08/06 06:51:21;;;;;;;15.55;8.82;;;;;;;21.94;63.03;99517.22;5029945;28;20049;-76
2021/08/06 06:53:50;;;;;;;12.55;9.15;;;;;;;21.70;63.03;99501.00;5029679;28;20042;-79
2021/08/06 06:56:16;;;;;;;13.45;8.75;;;;;;;21.67;63.41;99532.94;5029691;28;20064;-79
2021/08/06 06:58:42;;;;;;;17.48;8.57;;;;;;;21.66;63.69;99529.44;5013077;28;20493;-79
2021/08/06 07:01:08;;;;;;;14.95;7.72;;;;;;;21.60;63.46;99524.47;5008376;28;20045;-80
2021/08/06 07:03:34;;;;;;;11.18;8.07;;;;;;;21.67;63.63;99538.22;5030236;28;20064;-78
2021/08/06 07:06:02;;;;;;;11.15;7.18;;;;;;;21.64;63.89;99530.47;5031110;28;20068;-77
2021/08/06 07:08:28;;;;;;;14.68;7.45;;;;;;;21.72;63.29;99524.75;5031243;28;20067;-79
2021/08/06 07:10:54;;;;;;;10.40;7.20;;;;;;;21.67;63.00;99538.22;5031062;28;20045;-78
2021/08/06 07:13:21;;;;;;;9.25;6.60;;;;;;;21.64;64.10;99530.47;5014927;28;20041;-78
2021/08/06 07:15:49;;;;;;;11.73;7.30;;;;;;;21.69;63.93;99538.16;4997717;28;20155;-77
2021/08/06 07:18:15;;;;;;;12.60;6.60;;;;;;;21.71;63.56;99536.28;5013153;28;20402;-79
2021/08/06 07:20:41;;;;;;;10.52;7.25;;;;;;;21.80;63.79;99538.34;5030868;28;20050;-79
2021/08/06 07:23:07;;;;;;;13.02;7.60;;;;;;;21.61;63.76;99520.09;5021588;28;20071;-79
2021/08/06 07:25:33;;;;;;;10.90;7.00;;;;;;;21.52;63.73;99509.06;5039625;28;20155;-80
2021/08/06 07:28:03;;;;;;;12.13;7.10;;;;;;;21.65;63.75;99526.88;5029730;28;20041;-78
2021/08/06 07:30:30;;;;;;;11.02;6.95;;;;;;;21.83;64.75;99524.09;5031266;28;20041;-78
2021/08/06 07:32:56;;;;;;;20.67;6.97;;;;;;;21.94;63.83;99503.97;5013369;28;20127;-79
2021/08/06 07:35:24;;;;;;;12.35;6.45;;;;;;;22.31;63.76;99523.81;5030108;28;20095;-82
2021/08/06 07:37:50;;;;;;;12.52;6.97;;;;;;;22.54;63.43;99528.56;5029236;28;20558;-81
2021/08/06 07:40:17;;;;;;;12.52;6.40;;;;;;;22.56;63.20;99520.50;5029835;28;20033;-77
2021/08/06 07:42:43;;;;;;;12.57;7.57;;;;;;;22.38;62.22;99496.84;5031148;28;20049;-80
2021/08/06 07:45:11;;;;;;;14.52;7.47;;;;;;;22.26;62.86;99511.72;5014534;28;20091;-79
2021/08/06 07:47:37;;;;;;;11.55;6.88;;;;;;;22.13;62.94;99505.47;5036187;28;20123;-81
2021/08/06 07:50:04;;;;;;;9.45;7.45;;;;;;;22.01;62.97;99514.16;5029328;28;20073;-80
2021/08/06 07:52:30;;;;;;;10.23;7.20;;;;;;;21.94;63.51;99501.31;5028217;28;20037;-79
2021/08/06 07:54:57;;;;;;;11.45;8.07;;;;;;;21.93;63.83;99514.63;5012110;28;20053;-81
2021/08/06 07:57:22;;;;;;;10.65;8.00;;;;;;;21.58;63.79;99491.94;5031268;28;20623;-80
2021/08/06 07:59:48;;;;;;;11.75;8.45;;;;;;;21.57;64.51;99494.72;5036751;28;20037;-78
2021/08/06 08:02:14;;;;;;;11.90;8.90;;;;;;;21.43;64.71;99506.09;5034570;28;20052;-78
2021/08/06 08:04:40;;;;;;;15.48;8.77;;;;;;;21.33;66.00;99490.75;5022830;28;20073;-80
2021/08/06 08:07:06;;;;;;;12.95;9.80;;;;;;;21.31;65.91;99503.22;5017432;28;20390;-81
2021/08/06 08:09:33;;;;;;;12.52;8.90;;;;;;;21.37;65.93;99507.31;5019657;28;20111;-81
2021/08/06 08:11:58;;;;;;;13.80;9.48;;;;;;;21.37;66.11;99497.56;5040692;28;20042;-80
2021/08/06 08:14:24;;;;;;;13.15;9.35;;;;;;;21.52;66.78;99484.38;5045192;28;20132;-75
2021/08/06 08:16:52;;;;;;;13.30;9.70;;;;;;;21.85;66.51;99501.03;5028182;28;20043;-77
2021/08/06 08:19:18;;;;;;;13.13;9.25;;;;;;;22.09;66.42;99488.06;5025676;28;20041;-78
2021/08/06 08:21:45;;;;;;;10.20;8.80;;;;;;;22.74;64.78;99485.81;5010777;28;20052;-76
2021/08/06 08:24:11;;;;;;;11.02;9.20;;;;;;;23.29;65.53;99481.34;5042664;28;20374;-77
2021/08/06 08:26:38;;;;;;;12.35;9.50;;;;;;;23.47;64.03;99481.91;5028301;28;20050;-76
2021/08/06 08:29:05;;;;;;;15.05;10.02;;;;;;;23.62;63.34;99478.22;5020515;28;20041;-77
2021/08/06 08:31:31;;;;;;;13.50;8.73;;;;;;;23.80;62.46;99503.63;5005416;28;20063;-79
2021/08/06 08:33:57;;;;;;;10.68;7.80;;;;;;;24.18;62.78;99508.09;5029503;28;20048;-75
2021/08/06 08:36:23;;;;;;;14.63;8.20;;;;;;;24.22;61.11;99506.91;5028816;28;20041;-79
2021/08/06 08:39:05;;;;;;;13.10;8.10;;;;;;;24.21;60.46;99486.63;5045542;28;20056;-78
2021/08/06 08:41:34;;;;;;;12.63;11.07;;;;;;;24.60;60.18;99491.84;5029406;28;20047;-77
2021/08/06 08:44:03;;;;;;;20.00;13.73;;;;;;;24.51;59.39;99478.25;5046852;28;20041;-78
2021/08/06 08:46:30;;;;;;;15.85;11.68;;;;;;;24.98;59.63;99488.22;5031882;28;20033;-77
2021/08/06 08:48:59;;;;;;;16.70;12.05;;;;;;;25.09;58.08;99482.97;5011414;28;20037;-76
2021/08/06 08:51:30;;;;;;;19.50;11.52;;;;;;;25.18;58.13;99480.56;5047930;28;20148;-79
2021/08/06 08:54:01;;;;;;;23.27;11.82;;;;;;;25.16;57.75;99482.50;5030317;28;20119;-77
2021/08/06 08:56:31;;;;;;;18.58;10.50;;;;;;;25.31;57.41;99485.78;5031228;28;20037;-79
2021/08/06 08:58:58;;;;;;;14.27;9.02;;;;;;;25.27;56.89;99483.38;5043557;28;20148;-79
2021/08/06 09:01:25;;;;;;;18.02;9.60;;;;;;;25.15;56.10;99476.31;5022940;28;20041;-79
2021/08/06 09:03:53;;;;;;;14.02;9.82;;;;;;;25.17;56.71;99489.50;5003050;28;20048;-78
2021/08/06 09:06:43;;;;;;;14.30;11.13;;;;;;;24.74;55.69;99450.97;5021179;28;20037;-78
2021/08/06 09:09:35;;;;;;;14.80;10.23;;;;;;;24.65;56.53;99487.88;5021018;28;20049;-79
2021/08/06 09:12:12;;;;;;;16.27;11.13;;;;;;;24.34;56.66;99466.19;5036928;28;20126;-78
2021/08/06 09:15:01;;;;;;;16.48;12.63;;;;;;;24.15;57.05;99479.94;5036633;28;20118;-77
2021/08/06 09:17:37;;;;;;;17.00;12.00;;;;;;;24.21;57.57;99499.91;5022605;28;20037;-77
2021/08/06 09:20:09;;;;;;;15.73;11.30;;;;;;;24.10;57.94;99497.16;5041571;28;20045;-78
2021/08/06 09:22:42;;;;;;;19.08;11.98;;;;;;;23.96;57.17;99500.75;5038613;28;20041;-79
2021/08/06 09:25:12;;;;;;;13.35;11.23;;;;;;;23.92;57.95;99510.75;5036783;28;20124;-81
2021/08/06 09:27:44;;;;;;;;;;;;;;;23.86;57.99;99513.81;5019131;28;20037;-79
2021/08/06 09:30:30;;;;;;;15.75;10.75;;;;;;;23.83;58.48;99509.59;5036028;28;19944;-79
2021/08/06 09:32:56;;;;;;;22.13;13.30;;;;;;;23.73;58.87;99503.19;5002660;28;20037;-79
2021/08/06 09:35:25;;;;;;;14.82;11.40;;;;;;;23.90;59.09;99512.66;5018755;28;20132;-78
2021/08/06 09:37:52;;;;;;;16.88;9.18;;;;;;;23.92;59.09;99505.44;5018182;28;20473;-76
2021/08/06 09:40:29;;;;;;;9.80;7.80;;;;;;;23.90;59.04;99529.44;5034759;28;20052;-74
2021/08/06 09:42:58;;;;;;;15.30;8.50;;;;;;;23.66;59.11;99534.63;5034524;28;20034;-78
2021/08/06 09:45:36;;;;;;;13.13;7.95;;;;;;;23.59;59.06;99538.66;5034875;28;20030;-77
2021/08/06 09:48:03;;;;;;;11.38;8.52;;;;;;;23.22;59.65;99509.28;5032797;28;20117;-78
2021/08/06 09:50:37;;;;;;;14.43;8.45;;;;;;;23.17;60.46;99523.66;5002421;28;20528;-77
2021/08/06 09:53:06;;;;;;;12.35;7.97;;;;;;;23.09;61.12;99522.47;5017836;28;20795;-77
2021/08/06 09:55:36;;;;;;;10.00;7.85;;;;;;;22.97;61.75;99495.78;5035199;28;20390;-76
2021/08/06 09:58:14;;;;;;;9.52;8.38;;;;;;;23.03;61.89;99497.19;5000729;28;20049;-79
2021/08/06 10:00:43;;;;;;;10.55;8.77;;;;;;;23.22;62.32;99530.50;5019839;28;20044;-78
2021/08/06 10:03:30;;;;;;;10.10;8.82;;;;;;;22.95;62.54;99499.50;5021763;28;20688;-78
2021/08/06 10:06:11;;;;;;;15.48;9.05;;;;;;;22.87;63.29;99511.44;5023651;28;20044;-81
2021/08/06 10:08:44;;;;;;;12.10;9.20;;;;;;;22.82;63.48;99532.13;5034791;28;20053;-77
2021/08/06 10:11:30;;;;;;;13.20;9.77;;;;;;;22.79;63.92;99528.78;5037988;28;20041;-77
2021/08/06 10:13:56;;;;;;;13.82;9.77;;;;;;;22.29;64.13;99488.63;5034069;28;20088;-79
2021/08/06 10:16:23;;;;;;;12.35;9.52;;;;;;;22.45;65.45;99525.66;5035184;28;20057;-77
2021/08/06 10:18:49;;;;;;;14.20;10.10;;;;;;;22.32;66.14;99536.13;5017866;28;20041;-76
2021/08/06 10:21:16;;;;;;;10.32;8.32;;;;;;;22.33;67.01;99528.06;5032998;28;20560;-77
2021/08/06 10:23:43;;;;;;;12.43;8.50;;;;;;;22.06;67.13;99490.91;5032379;28;20041;-79
2021/08/06 10:26:14;;;;;;;17.00;10.40;;;;;;;22.21;67.44;99527.03;5031356;28;20033;-77
2021/08/06 10:28:44;;;;;;;12.75;10.23;;;;;;;22.16;67.08;99515.03;5030992;28;20508;-78
2021/08/06 10:31:17;;;;;;;13.75;11.50;;;;;;;21.94;67.17;99519.00;5032275;28;20099;-80
2021/08/06 10:34:06;;;;;;;12.50;11.20;;;;;;;21.73;67.36;99510.56;5015401;28;20552;-79
2021/08/06 10:36:52;;;;;;;12.75;10.63;;;;;;;21.78;67.73;99521.72;4998496;28;20104;-79
2021/08/06 10:39:30;;;;;;;15.73;11.20;;;;;;;21.72;67.97;99511.50;4998801;28;20073;-77
2021/08/06 10:41:57;;;;;;;15.70;12.38;;;;;;;21.70;67.88;99516.88;5032581;28;20130;-80
2021/08/06 10:44:23;;;;;;;15.45;13.45;;;;;;;21.67;68.55;99515.28;5030818;28;20481;-78
2021/08/06 10:47:04;;;;;;;17.23;14.85;;;;;;;21.63;68.33;99510.22;5031089;28;20575;-80
2021/08/06 10:49:32;;;;;;;15.30;13.25;;;;;;;21.54;69.26;99493.06;5036459;28;20133;-77
2021/08/06 10:52:20;;;;;;;17.17;14.35;;;;;;;21.60;69.66;99487.41;5037358;28;20481;-80
2021/08/06 10:54:48;;;;;;;14.73;13.13;;;;;;;21.75;69.61;99496.28;5001497;28;20065;-79
2021/08/06 10:57:28;;;;;;;16.05;13.40;;;;;;;21.69;69.67;99486.03;5022450;28;20080;-78
2021/08/06 10:59:55;;;;;;;16.75;14.05;;;;;;;21.90;69.39;99506.88;5030777;28;20055;-78
2021/08/06 11:02:42;;;;;;;19.25;13.27;;;;;;;21.85;69.24;99512.47;5031642;28;20043;-77
2021/08/06 11:05:28;;;;;;;18.13;13.02;;;;;;;21.78;70.06;99508.47;5033441;28;20120;-80
2021/08/06 11:07:55;;;;;;;19.67;15.45;;;;;;;21.67;69.38;99509.13;5030123;28;20041;-77
2021/08/06 11:10:48;;;;;;;20.55;16.15;;;;;;;21.58;69.16;99507.00;5014326;28;20044;-78
2021/08/06 11:13:33;;;;;;;17.92;14.63;;;;;;;21.72;70.52;99514.16;5031151;28;20094;-79
2021/08/06 11:16:13;;;;;;;18.10;15.38;;;;;;;21.85;70.64;99511.63;5030330;28;20516;-79
2021/08/06 11:18:47;;;;;;;17.58;15.73;;;;;;;22.05;69.85;99502.44;5012551;28;20052;-78
2021/08/06 11:21:13;;;;;;;21.80;16.98;;;;;;;21.94;70.01;99489.84;5014489;28;20045;-79
2021/08/06 11:23:41;;;;;;;19.15;16.80;;;;;;;22.11;69.63;99507.38;5032542;28;20064;-79
2021/08/06 11:29:32;;;;;;;23.02;19.30;;;;;;;21.36;69.55;99362.72;5011072;28;20046;-77
2021/08/06 11:32:18;;;;;;;24.02;19.13;;;;;;;21.65;69.44;99413.91;4995981;28;20053;-78
2021/08/06 11:34:57;;;;;;;22.67;17.77;;;;;;;22.14;69.19;99480.69;5011227;28;20037;-79
2021/08/06 11:37:26;;;;;;;24.23;17.10;;;;;;;21.99;70.39;99450.69;5009198;28;20091;-79